Time;durP1;ratioP1;P1;durP2;ratioP2;P2;SDS_P1;SDS_P2;PMS_P1;PMS_P2;Temp;Humidity;BMP_temperature;BMP_pressure;BME280_temperature;BME280_humidity;BME280_pressure;Samples;Min_cycle;Max_cycle;Signal;HPM_P1;HPM_P2
2022/11/26 00:00:30;;;;;;;9.48;3.53;;;;;;;9.29;63.53;98168.78;4854741;29;20259;-76
2022/11/26 00:02:56;;;;;;;6.68;2.50;;;;;;;9.39;62.81;98166.50;4852255;29;20173;-76
2022/11/26 00:05:22;;;;;;;10.02;3.20;;;;;;;9.27;62.58;98166.41;4872547;28;20173;-76
2022/11/26 00:07:53;;;;;;;8.52;2.85;;;;;;;9.20;63.09;98170.81;4861639;28;20645;-76
2022/11/26 00:10:26;;;;;;;8.68;2.40;;;;;;;9.17;63.40;98179.84;4840489;29;20697;-76
2022/11/26 00:12:51;;;;;;;6.80;2.20;;;;;;;9.00;63.68;98173.56;4874374;28;20329;-76
2022/11/26 00:15:21;;;;;;;9.90;4.30;;;;;;;9.05;64.32;98184.13;4852351;29;20283;-75
2022/11/26 00:17:48;;;;;;;6.53;3.30;;;;;;;9.18;64.06;98188.44;4874915;28;20200;-76
2022/11/26 00:20:14;;;;;;;9.55;3.78;;;;;;;9.22;64.39;98196.59;4873631;28;20207;-76
2022/11/26 00:22:42;;;;;;;10.90;3.92;;;;;;;9.35;64.41;98202.50;4870256;28;20290;-76
2022/11/26 00:25:20;;;;;;;12.40;4.72;;;;;;;9.59;64.81;98207.16;4873465;28;20326;-76
2022/11/26 00:27:46;;;;;;;13.45;4.10;;;;;;;9.48;65.09;98206.81;4858264;29;20178;-76
2022/11/26 00:30:20;;;;;;;11.43;4.68;;;;;;;9.61;64.55;98205.13;4863538;29;20199;-76
2022/11/26 00:32:46;;;;;;;21.50;6.23;;;;;;;9.48;65.38;98201.63;4868660;28;20312;-76
2022/11/26 00:35:12;;;;;;;13.75;6.22;;;;;;;9.52;65.52;98207.19;4856741;29;20279;-77
2022/11/26 00:37:43;;;;;;;14.00;5.20;;;;;;;9.64;65.56;98212.50;4878633;28;20288;-76
2022/11/26 00:40:22;;;;;;;14.77;6.35;;;;;;;9.70;66.14;98209.06;4858141;29;20390;-75
2022/11/26 00:42:49;;;;;;;17.38;5.53;;;;;;;9.69;66.26;98207.47;4868065;28;20288;-76
2022/11/26 00:45:20;;;;;;;12.32;6.03;;;;;;;9.89;65.94;98220.31;4851011;29;20198;-75
2022/11/26 00:47:46;;;;;;;14.15;6.03;;;;;;;9.81;65.90;98221.38;4853474;29;20212;-76
2022/11/26 00:50:14;;;;;;;14.88;6.65;;;;;;;9.83;65.73;98219.34;4856159;29;20582;-76
2022/11/26 00:52:40;;;;;;;9.70;5.50;;;;;;;9.86;65.70;98229.31;4867613;28;20290;-76
2022/11/26 00:55:14;;;;;;;14.13;6.30;;;;;;;10.00;65.57;98224.00;4860889;29;20642;-76
2022/11/26 00:57:39;;;;;;;14.38;5.97;;;;;;;9.91;65.78;98226.09;4867431;28;20140;-75
2022/11/26 01:00:19;;;;;;;16.90;6.28;;;;;;;10.03;65.37;98229.59;4871886;28;20192;-76
2022/11/26 01:02:45;;;;;;;11.48;6.00;;;;;;;9.88;65.74;98242.13;4856754;28;20632;-75
2022/11/26 01:05:10;;;;;;;14.32;6.18;;;;;;;9.87;65.93;98245.72;4855547;29;20399;-76
2022/11/26 01:07:36;;;;;;;12.32;5.78;;;;;;;9.88;65.85;98242.91;4875402;28;20208;-75
2022/11/26 01:10:01;;;;;;;13.27;6.00;;;;;;;9.91;65.55;98255.50;4856750;28;20188;-76
2022/11/26 01:12:27;;;;;;;17.55;6.15;;;;;;;9.89;65.46;98265.31;4862551;29;20654;-76
2022/11/26 01:14:52;;;;;;;16.77;5.80;;;;;;;9.90;65.51;98266.94;4872727;28;20199;-76
2022/11/26 01:17:18;;;;;;;14.40;5.15;;;;;;;9.93;65.92;98271.69;4849849;28;20295;-75
2022/11/26 01:19:44;;;;;;;14.85;5.88;;;;;;;9.95;66.01;98276.69;4852456;28;20187;-75
2022/11/26 01:22:20;;;;;;;12.27;6.07;;;;;;;10.22;65.56;98274.66;4861572;29;20289;-77
2022/11/26 01:24:47;;;;;;;14.32;6.32;;;;;;;10.17;65.40;98284.13;4861871;28;20651;-76
2022/11/26 01:27:12;;;;;;;16.42;6.97;;;;;;;10.14;65.66;98277.50;4857392;29;20530;-76
2022/11/26 01:29:37;;;;;;;14.60;6.18;;;;;;;10.27;65.36;98287.03;4858559;29;20217;-76
2022/11/26 01:32:03;;;;;;;14.35;6.55;;;;;;;10.29;65.07;98283.19;4863004;29;20207;-76
2022/11/26 01:34:29;;;;;;;11.10;5.53;;;;;;;10.30;65.15;98282.19;4872476;28;20689;-76
2022/11/26 01:36:54;;;;;;;11.48;5.72;;;;;;;10.35;65.00;98291.19;4875076;28;20368;-75
2022/11/26 01:39:21;;;;;;;15.32;5.85;;;;;;;10.38;64.84;98291.53;4856445;29;20214;-76
2022/11/26 01:41:56;;;;;;;13.18;6.45;;;;;;;10.40;64.72;98297.34;4856661;29;20257;-76
2022/11/26 01:44:24;;;;;;;15.27;5.47;;;;;;;10.43;64.36;98306.53;4859727;29;20738;-76
2022/11/26 01:46:51;;;;;;;11.85;5.80;;;;;;;10.46;64.39;98309.50;4853345;29;20294;-76
2022/11/26 01:49:31;;;;;;;12.23;5.90;;;;;;;10.49;64.17;98301.25;4859420;28;20340;-76
2022/11/26 01:52:02;;;;;;;10.40;5.60;;;;;;;10.37;64.64;98307.41;4856771;28;20262;-76
2022/11/26 01:54:28;;;;;;;10.77;6.10;;;;;;;10.08;64.55;98307.00;4869037;28;20300;-76
2022/11/26 01:56:55;;;;;;;8.85;4.90;;;;;;;10.06;65.05;98307.22;4874386;28;20250;-76
2022/11/26 01:59:29;;;;;;;10.55;5.85;;;;;;;10.08;65.15;98304.41;4833876;29;20191;-76
2022/11/26 02:01:56;;;;;;;11.48;5.40;;;;;;;9.94;65.20;98309.72;4865049;28;20242;-76
2022/11/26 02:04:26;;;;;;;10.45;4.97;;;;;;;9.91;65.20;98317.94;4851139;29;20586;-76
2022/11/26 02:06:52;;;;;;;11.13;6.00;;;;;;;9.82;65.08;98316.59;4871497;28;20220;-76
2022/11/26 02:09:18;;;;;;;9.20;5.38;;;;;;;9.70;64.60;98308.69;4845514;28;20282;-76
2022/11/26 02:11:44;;;;;;;9.77;5.43;;;;;;;9.64;64.95;98319.91;4872441;28;20231;-76
2022/11/26 02:14:24;;;;;;;13.43;6.95;;;;;;;9.61;65.37;98314.34;4878026;28;20722;-76
2022/11/26 02:16:56;;;;;;;13.45;5.55;;;;;;;9.54;65.27;98322.16;4858622;29;20216;-76
2022/11/26 02:19:24;;;;;;;14.73;6.97;;;;;;;9.41;65.31;98317.03;4873848;28;20269;-76
2022/11/26 02:21:55;;;;;;;12.85;6.45;;;;;;;9.43;65.43;98318.44;4859525;29;20696;-75
2022/11/26 02:24:24;;;;;;;11.95;5.72;;;;;;;9.27;65.70;98319.72;4854787;28;20195;-76
2022/11/26 02:26:59;;;;;;;11.23;5.47;;;;;;;9.34;65.55;98322.28;4855897;29;20211;-76
2022/11/26 02:29:59;;;;;;;10.32;4.50;;;;;;;9.49;65.30;98322.00;4870849;28;20279;-76
2022/11/26 02:32:31;;;;;;;14.38;4.88;;;;;;;9.44;64.91;98320.03;4870243;28;20362;-76
2022/11/26 02:35:13;;;;;;;10.30;4.07;;;;;;;9.56;64.54;98323.56;4873595;28;20250;-76
2022/11/26 02:37:45;;;;;;;9.00;4.15;;;;;;;9.45;64.09;98321.63;4855398;28;20241;-76
2022/11/26 02:40:10;;;;;;;9.55;4.53;;;;;;;9.30;64.53;98326.28;4881755;28;20193;-76
2022/11/26 02:42:36;;;;;;;6.75;4.18;;;;;;;9.29;64.60;98328.09;4862095;28;20647;-76
2022/11/26 02:45:06;;;;;;;10.35;4.00;;;;;;;9.34;63.93;98317.09;4874904;28;20443;-76
2022/11/26 02:47:32;;;;;;;7.53;3.55;;;;;;;9.21;63.96;98324.94;4883319;28;20200;-75
2022/11/26 02:49:59;;;;;;;10.93;3.33;;;;;;;9.22;64.14;98329.94;4874450;28;20214;-76
2022/11/26 02:52:26;;;;;;;7.45;3.97;;;;;;;9.11;64.05;98325.38;4869234;29;20243;-76
2022/11/26 02:54:52;;;;;;;8.52;3.38;;;;;;;9.07;63.80;98319.81;4883831;28;20363;-76
2022/11/26 02:57:20;;;;;;;6.00;2.67;;;;;;;8.97;63.97;98325.44;4871958;28;20342;-76
2022/11/26 02:59:46;;;;;;;4.63;2.63;;;;;;;8.89;64.21;98328.25;4867995;28;20187;-76
2022/11/26 03:02:34;;;;;;;9.10;3.47;;;;;;;8.97;63.99;98335.81;4880191;28;20215;-75
2022/11/26 03:05:01;;;;;;;8.00;3.78;;;;;;;8.78;64.42;98332.28;4852552;29;20385;-76
2022/11/26 03:07:29;;;;;;;5.88;2.90;;;;;;;8.80;64.89;98340.66;4862669;28;20620;-76
2022/11/26 03:09:59;;;;;;;5.72;3.55;;;;;;;8.84;65.01;98338.44;4881961;28;20204;-76
2022/11/26 03:12:25;;;;;;;9.50;3.15;;;;;;;8.69;64.79;98332.69;4881142;28;20619;-76
2022/11/26 03:14:51;;;;;;;8.90;3.50;;;;;;;8.71;65.38;98330.72;4862098;29;20211;-76
2022/11/26 03:17:17;;;;;;;8.40;2.95;;;;;;;8.71;65.10;98333.31;4868889;28;20581;-75
2022/11/26 03:19:43;;;;;;;9.63;3.75;;;;;;;8.66;65.38;98325.31;4875956;28;20162;-76
2022/11/26 03:22:09;;;;;;;4.53;2.97;;;;;;;8.65;65.29;98328.91;4879710;28;20267;-76
2022/11/26 03:24:35;;;;;;;5.45;2.30;;;;;;;8.65;64.96;98328.91;4881887;28;20274;-76
2022/11/26 03:27:00;;;;;;;3.92;2.42;;;;;;;8.60;64.86;98334.72;4858097;28;20208;-76
2022/11/26 03:29:25;;;;;;;6.75;2.72;;;;;;;8.55;64.83;98332.72;4859160;28;20690;-76
2022/11/26 03:31:51;;;;;;;7.57;2.53;;;;;;;8.53;65.20;98328.72;4860642;28;20286;-76
2022/11/26 03:34:16;;;;;;;6.20;2.35;;;;;;;8.54;65.15;98330.34;4877624;28;20311;-76
2022/11/26 03:36:42;;;;;;;9.13;2.47;;;;;;;8.48;65.18;98325.94;4866914;29;20274;-76
2022/11/26 03:39:07;;;;;;;10.60;2.90;;;;;;;8.43;65.20;98321.34;4875966;28;20373;-76
2022/11/26 03:41:32;;;;;;;5.32;2.42;;;;;;;8.41;65.11;98308.56;4878654;28;20320;-76
2022/11/26 03:43:58;;;;;;;5.93;2.33;;;;;;;8.39;64.69;98307.16;4870448;28;20245;-75
2022/11/26 03:46:23;;;;;;;6.38;2.45;;;;;;;8.33;64.72;98307.97;4867312;28;20260;-76
2022/11/26 03:48:49;;;;;;;6.47;2.45;;;;;;;8.27;64.86;98308.78;4867423;28;20635;-76
2022/11/26 03:51:14;;;;;;;4.78;2.20;;;;;;;8.25;64.86;98306.38;4874935;28;20164;-76
2022/11/26 03:53:39;;;;;;;5.78;2.58;;;;;;;8.24;64.82;98310.78;4874106;28;20205;-76
2022/11/26 03:56:05;;;;;;;4.50;2.13;;;;;;;8.23;65.06;98313.56;4870590;28;20318;-76
2022/11/26 03:58:30;;;;;;;4.63;2.20;;;;;;;8.23;64.42;98316.97;4870927;28;20677;-76
2022/11/26 04:00:56;;;;;;;5.85;2.13;;;;;;;8.12;64.61;98307.16;4878786;28;20572;-76
2022/11/26 04:03:21;;;;;;;8.18;3.40;;;;;;;8.11;64.79;98315.97;4875999;28;20263;-76
2022/11/26 04:05:47;;;;;;;8.20;2.45;;;;;;;8.09;65.54;98328.34;4875598;28;20282;-76
2022/11/26 04:08:12;;;;;;;9.27;3.22;;;;;;;8.12;64.80;98329.72;4875087;28;20252;-75
2022/11/26 04:10:38;;;;;;;6.65;2.50;;;;;;;8.14;64.45;98323.34;4863582;29;20290;-76
2022/11/26 04:13:03;;;;;;;5.95;2.67;;;;;;;8.18;64.62;98334.91;4876519;28;20232;-76
2022/11/26 04:15:29;;;;;;;4.18;2.40;;;;;;;8.15;64.45;98337.13;4854782;29;20635;-76
2022/11/26 04:17:54;;;;;;;5.57;2.28;;;;;;;8.09;64.72;98338.72;4864552;29;20194;-76
2022/11/26 04:20:19;;;;;;;4.75;2.30;;;;;;;8.06;64.46;98324.34;4872240;28;20196;-76
2022/11/26 04:22:45;;;;;;;6.47;2.17;;;;;;;7.99;64.63;98341.69;4877303;28;20190;-76
2022/11/26 04:25:10;;;;;;;6.90;2.15;;;;;;;7.92;64.31;98321.94;4875939;28;20207;-76
2022/11/26 04:27:35;;;;;;;4.15;2.30;;;;;;;7.90;64.37;98331.72;4869430;28;20662;-76
2022/11/26 04:30:01;;;;;;;6.22;2.78;;;;;;;7.84;64.52;98325.53;4881671;28;20661;-75
2022/11/26 04:32:26;;;;;;;8.07;2.80;;;;;;;7.83;64.64;98329.09;4872328;28;20184;-76
2022/11/26 04:34:51;;;;;;;4.47;2.22;;;;;;;7.86;64.71;98329.53;4877643;28;20200;-76
2022/11/26 04:37:17;;;;;;;5.10;2.75;;;;;;;7.82;64.77;98333.50;4868465;28;20295;-76
2022/11/26 04:39:42;;;;;;;6.10;2.20;;;;;;;7.84;64.10;98346.28;4859164;29;20324;-76
2022/11/26 04:42:08;;;;;;;8.60;2.75;;;;;;;7.84;64.46;98349.66;4877622;28;20268;-76
2022/11/26 04:44:33;;;;;;;5.55;1.95;;;;;;;7.83;64.07;98352.44;4868849;28;20181;-76
2022/11/26 04:46:58;;;;;;;4.20;2.08;;;;;;;7.82;63.49;98359.44;4858310;29;20674;-76
2022/11/26 04:49:24;;;;;;;4.18;2.20;;;;;;;7.72;63.37;98360.81;4869826;28;20200;-76
2022/11/26 04:51:49;;;;;;;3.08;1.73;;;;;;;7.63;63.94;98360.97;4875372;28;20167;-76
2022/11/26 04:54:14;;;;;;;6.15;2.83;;;;;;;7.62;63.14;98358.59;4841671;29;20683;-76
2022/11/26 04:56:40;;;;;;;5.30;2.15;;;;;;;7.54;63.30;98356.97;4873283;28;20297;-75
2022/11/26 04:59:05;;;;;;;6.25;2.30;;;;;;;7.52;63.58;98373.72;4861167;29;20219;-76
2022/11/26 05:01:30;;;;;;;6.53;2.15;;;;;;;7.53;63.40;98370.13;4872447;28;20161;-76
2022/11/26 05:03:56;;;;;;;3.80;2.53;;;;;;;7.52;63.80;98384.88;4878487;28;20294;-76
2022/11/26 05:06:21;;;;;;;9.57;2.88;;;;;;;7.50;63.08;98371.31;4874876;28;20325;-76
2022/11/26 05:08:46;;;;;;;6.47;2.20;;;;;;;7.48;63.63;98386.25;4880545;28;20290;-76
2022/11/26 05:11:12;;;;;;;5.43;2.83;;;;;;;7.63;63.18;98389.50;4873839;28;20196;-76
2022/11/26 05:13:37;;;;;;;2.97;2.13;;;;;;;7.71;63.28;98390.31;4877665;28;20191;-76
2022/11/26 05:16:03;;;;;;;6.10;2.03;;;;;;;7.62;63.39;98400.84;4874791;28;20754;-76
2022/11/26 05:18:28;;;;;;;6.10;2.65;;;;;;;7.54;63.68;98401.03;4856003;28;20544;-76
2022/11/26 05:20:54;;;;;;;4.10;2.60;;;;;;;7.49;64.51;98408.59;4872915;28;20332;-76
2022/11/26 05:23:19;;;;;;;7.22;2.80;;;;;;;7.52;64.16;98415.97;4869456;28;20196;-76
2022/11/26 05:25:44;;;;;;;4.80;2.10;;;;;;;7.47;63.90;98423.53;4875673;28;20337;-76
2022/11/26 05:28:10;;;;;;;5.72;2.10;;;;;;;7.46;63.78;98420.13;4870445;28;20271;-76
2022/11/26 05:30:35;;;;;;;4.78;2.08;;;;;;;7.37;64.55;98431.66;4876809;28;20177;-75
2022/11/26 05:33:01;;;;;;;9.05;2.65;;;;;;;7.38;64.34;98435.84;4858878;29;20164;-76
2022/11/26 05:35:26;;;;;;;4.07;2.78;;;;;;;7.35;64.94;98432.84;4856134;29;20192;-77
2022/11/26 05:37:51;;;;;;;5.70;2.67;;;;;;;7.41;64.75;98437.25;4857773;29;20567;-76
2022/11/26 05:40:17;;;;;;;6.00;2.13;;;;;;;7.48;64.82;98451.03;4859148;29;20172;-76
2022/11/26 05:42:42;;;;;;;2.50;1.80;;;;;;;7.54;64.94;98454.66;4871691;28;20658;-76
2022/11/26 05:45:08;;;;;;;2.65;1.50;;;;;;;7.60;64.83;98461.66;4849540;29;20362;-76
2022/11/26 05:47:33;;;;;;;3.75;1.60;;;;;;;7.60;65.28;98472.81;4877116;28;20192;-76
2022/11/26 05:50:02;;;;;;;2.38;1.40;;;;;;;7.64;65.02;98463.69;4852089;29;20337;-76
2022/11/26 05:52:27;;;;;;;3.67;1.60;;;;;;;7.65;65.46;98467.88;4836482;29;20730;-76
2022/11/26 05:54:52;;;;;;;2.50;1.83;;;;;;;7.68;65.09;98477.06;4863391;29;20204;-76
2022/11/26 05:57:18;;;;;;;5.82;2.33;;;;;;;7.71;65.48;98455.13;4874162;28;20756;-76
2022/11/26 05:59:49;;;;;;;4.15;2.20;;;;;;;7.81;65.74;98463.34;4862300;29;20298;-76
2022/11/26 06:02:15;;;;;;;4.22;2.38;;;;;;;7.83;65.80;98469.13;4858286;29;20343;-76
2022/11/26 06:04:42;;;;;;;4.00;2.28;;;;;;;7.93;65.54;98472.16;4871744;28;20637;-76
2022/11/26 06:07:07;;;;;;;6.68;3.42;;;;;;;7.97;65.54;98469.97;4857359;29;20351;-76
2022/11/26 06:09:32;;;;;;;4.55;2.30;;;;;;;7.99;65.98;98471.38;4853929;29;20298;-76
2022/11/26 06:11:58;;;;;;;6.38;3.42;;;;;;;8.11;65.88;98471.63;4874758;28;20740;-76
2022/11/26 06:14:23;;;;;;;6.70;3.03;;;;;;;8.03;65.75;98469.97;4868539;28;20251;-76
2022/11/26 06:16:49;;;;;;;7.32;3.60;;;;;;;8.02;66.10;98475.38;4874691;28;20286;-76
2022/11/26 06:19:14;;;;;;;5.53;3.60;;;;;;;8.01;65.94;98466.78;4872542;28;20226;-76
2022/11/26 06:21:39;;;;;;;9.75;3.92;;;;;;;8.07;66.72;98466.03;4851298;28;20268;-76
2022/11/26 06:24:05;;;;;;;8.43;3.67;;;;;;;8.12;66.59;98472.41;4873974;28;20355;-76
2022/11/26 06:26:30;;;;;;;8.32;3.80;;;;;;;8.19;65.96;98465.44;4859035;28;20636;-76
2022/11/26 06:28:56;;;;;;;7.75;4.05;;;;;;;8.19;66.34;98460.25;4878849;28;20591;-76
2022/11/26 06:31:21;;;;;;;7.95;4.55;;;;;;;8.24;66.32;98468.22;4868187;28;20298;-76
2022/11/26 06:33:46;;;;;;;8.23;5.03;;;;;;;8.27;66.34;98470.44;4871599;28;20169;-76
2022/11/26 06:36:12;;;;;;;12.88;5.28;;;;;;;8.35;66.37;98477.25;4858107;29;20191;-75
2022/11/26 06:38:37;;;;;;;10.07;5.15;;;;;;;8.44;66.10;98479.47;4867574;28;20279;-76
2022/11/26 06:41:04;;;;;;;12.10;5.78;;;;;;;8.53;66.84;98466.31;4862993;29;20227;-76
2022/11/26 06:43:30;;;;;;;14.75;6.45;;;;;;;8.64;66.73;98470.91;4852210;28;20362;-76
2022/11/26 06:46:03;;;;;;;11.93;5.47;;;;;;;8.74;66.93;98486.91;4867730;28;20339;-76
2022/11/26 06:48:29;;;;;;;12.38;6.43;;;;;;;8.71;66.73;98481.31;4852972;29;20297;-76
2022/11/26 06:50:54;;;;;;;11.38;5.60;;;;;;;8.78;66.54;98484.69;4858038;28;20372;-76
2022/11/26 06:53:21;;;;;;;12.18;5.43;;;;;;;8.90;66.31;98485.69;4876492;28;20275;-76
2022/11/26 06:55:46;;;;;;;10.65;5.82;;;;;;;8.88;66.71;98482.50;4871030;28;20685;-76
2022/11/26 06:58:13;;;;;;;14.35;5.95;;;;;;;8.98;66.17;98495.09;4869465;28;20658;-76
2022/11/26 07:00:39;;;;;;;15.93;7.13;;;;;;;8.89;66.54;98493.69;4872928;28;20298;-76
2022/11/26 07:03:25;;;;;;;16.23;6.63;;;;;;;9.03;66.71;98500.47;4857601;28;20275;-77
2022/11/26 07:05:51;;;;;;;15.93;6.65;;;;;;;9.01;66.15;98494.66;4846028;28;20251;-76
2022/11/26 07:08:16;;;;;;;13.85;6.75;;;;;;;9.03;66.41;98510.88;4873515;28;20288;-76
2022/11/26 07:10:42;;;;;;;11.02;5.57;;;;;;;9.04;66.32;98509.06;4880078;28;20748;-75
2022/11/26 07:13:07;;;;;;;19.55;6.88;;;;;;;8.98;66.62;98505.47;4871374;28;20259;-76
2022/11/26 07:15:33;;;;;;;13.82;6.30;;;;;;;9.04;66.48;98512.47;4860542;28;20113;-76
2022/11/26 07:17:58;;;;;;;10.25;5.60;;;;;;;9.08;66.77;98512.84;4874282;28;20180;-76
2022/11/26 07:20:24;;;;;;;12.13;6.95;;;;;;;9.07;66.38;98514.66;4858785;29;20169;-76
2022/11/26 07:22:49;;;;;;;14.63;6.50;;;;;;;9.08;66.62;98507.66;4877093;28;20345;-76
2022/11/26 07:25:16;;;;;;;13.80;7.22;;;;;;;9.20;66.76;98516.44;4854248;29;20340;-76
2022/11/26 07:27:41;;;;;;;17.27;7.85;;;;;;;9.23;66.68;98504.84;4862401;29;20547;-76
2022/11/26 07:30:07;;;;;;;12.30;6.20;;;;;;;9.32;66.69;98514.00;4862681;29;20266;-76
2022/11/26 07:32:33;;;;;;;16.60;7.32;;;;;;;9.37;66.05;98507.22;4859726;28;20318;-76
2022/11/26 07:34:59;;;;;;;13.30;6.13;;;;;;;9.41;66.36;98512.81;4861902;29;20704;-76
2022/11/26 07:37:24;;;;;;;16.13;7.05;;;;;;;9.39;66.31;98517.44;4875353;28;20692;-76
2022/11/26 07:39:50;;;;;;;15.25;7.18;;;;;;;9.47;66.40;98519.78;4875035;28;20274;-76
2022/11/26 07:42:15;;;;;;;16.23;6.93;;;;;;;9.60;65.70;98520.78;4875186;28;20733;-77
2022/11/26 07:44:40;;;;;;;12.07;6.22;;;;;;;9.59;65.88;98519.16;4854687;28;20234;-76
2022/11/26 07:47:06;;;;;;;16.98;7.38;;;;;;;9.59;65.51;98522.56;4856590;28;20299;-77
2022/11/26 07:49:31;;;;;;;12.50;6.90;;;;;;;9.66;65.36;98535.53;4861692;29;20404;-76
2022/11/26 07:51:56;;;;;;;15.23;6.75;;;;;;;9.67;65.49;98550.16;4872801;28;20207;-76
2022/11/26 07:54:22;;;;;;;13.52;7.10;;;;;;;9.70;65.42;98557.56;4880541;28;20256;-76
2022/11/26 07:56:47;;;;;;;11.43;6.20;;;;;;;9.66;65.26;98557.13;4876939;28;20218;-76
2022/11/26 07:59:12;;;;;;;14.45;6.90;;;;;;;9.68;65.14;98564.75;4881739;28;20345;-76
2022/11/26 08:01:38;;;;;;;15.45;6.80;;;;;;;9.67;65.47;98565.75;4857525;29;20173;-77
2022/11/26 08:04:04;;;;;;;11.07;6.65;;;;;;;9.69;65.15;98569.75;4853289;29;20379;-76
2022/11/26 08:06:30;;;;;;;14.63;6.22;;;;;;;9.63;65.54;98573.19;4880983;28;20302;-76
2022/11/26 08:08:58;;;;;;;12.85;6.35;;;;;;;9.74;65.42;98579.53;4875729;28;20669;-76
2022/11/26 08:11:26;;;;;;;10.70;6.47;;;;;;;9.76;65.26;98580.13;4862025;29;20243;-76
2022/11/26 08:13:53;;;;;;;15.07;6.45;;;;;;;9.72;65.70;98586.75;4856660;29;20335;-76
2022/11/26 08:16:18;;;;;;;15.05;6.43;;;;;;;9.75;65.38;98575.94;4863052;28;20365;-76
2022/11/26 08:18:44;;;;;;;13.18;6.72;;;;;;;9.72;65.38;98574.53;4858852;29;20256;-76
2022/11/26 08:21:09;;;;;;;12.07;6.45;;;;;;;9.80;65.52;98581.34;4863710;28;20211;-76
2022/11/26 08:23:35;;;;;;;11.45;7.00;;;;;;;9.72;65.97;98576.34;4873520;28;20172;-76
2022/11/26 08:26:06;;;;;;;14.00;6.85;;;;;;;9.88;65.68;98565.47;4874497;28;20279;-77
2022/11/26 08:28:32;;;;;;;13.30;7.45;;;;;;;9.69;66.21;98571.56;4878289;28;20213;-76
2022/11/26 08:31:05;;;;;;;14.90;7.13;;;;;;;9.86;65.60;98583.09;4872176;28;20295;-76
2022/11/26 08:33:30;;;;;;;15.45;6.93;;;;;;;9.83;65.60;98586.13;4871341;28;20253;-75
2022/11/26 08:35:56;;;;;;;16.05;6.80;;;;;;;9.85;65.51;98586.72;4871254;28;20379;-75
2022/11/26 08:38:21;;;;;;;15.63;6.20;;;;;;;9.87;65.33;98584.72;4858483;28;20193;-75
2022/11/26 08:40:47;;;;;;;12.93;7.07;;;;;;;9.83;65.53;98590.53;4877548;28;20038;-73
2022/11/26 08:43:12;;;;;;;17.17;7.63;;;;;;;9.84;65.71;98584.34;4859171;28;20205;-74
2022/11/26 08:45:37;;;;;;;14.32;7.22;;;;;;;9.91;65.77;98588.50;4845901;29;20280;-75
2022/11/26 08:48:03;;;;;;;17.30;8.00;;;;;;;9.86;65.34;98592.72;4879042;28;20120;-74
2022/11/26 08:50:28;;;;;;;14.88;6.88;;;;;;;9.97;64.95;98588.69;4857192;28;20279;-75
2022/11/26 08:52:54;;;;;;;16.92;7.35;;;;;;;10.01;65.22;98588.06;4874895;28;20323;-74
2022/11/26 08:55:20;;;;;;;14.85;7.50;;;;;;;10.01;65.07;98585.47;4869473;28;20196;-75
2022/11/26 08:57:45;;;;;;;12.95;6.47;;;;;;;10.01;65.00;98589.88;4862060;29;20397;-75
2022/11/26 09:00:11;;;;;;;13.07;6.80;;;;;;;10.08;65.08;98580.25;4871356;28;20273;-74
2022/11/26 09:02:36;;;;;;;15.15;7.60;;;;;;;9.96;65.41;98592.31;4872085;28;20280;-75
2022/11/26 09:05:02;;;;;;;15.88;8.38;;;;;;;9.99;64.93;98597.91;4874217;28;20317;-75
2022/11/26 09:07:27;;;;;;;17.98;8.13;;;;;;;10.07;64.83;98596.84;4871444;28;20196;-75
2022/11/26 09:09:53;;;;;;;15.52;8.48;;;;;;;10.12;64.93;98602.25;4879838;28;20180;-75
2022/11/26 09:12:18;;;;;;;19.10;8.23;;;;;;;10.07;64.68;98597.66;4875824;28;20195;-75
2022/11/26 09:14:44;;;;;;;16.77;8.35;;;;;;;10.14;64.14;98600.22;4865164;28;20677;-74
2022/11/26 09:17:10;;;;;;;20.42;9.40;;;;;;;10.17;63.78;98599.81;4864591;28;20285;-74
2022/11/26 09:19:35;;;;;;;20.92;8.73;;;;;;;10.11;64.16;98600.66;4858573;29;20180;-74
2022/11/26 09:22:01;;;;;;;18.27;8.60;;;;;;;10.15;64.27;98607.03;4860554;28;20282;-75
2022/11/26 09:24:26;;;;;;;16.33;8.57;;;;;;;10.07;64.25;98595.03;4852986;29;20291;-74
2022/11/26 09:26:52;;;;;;;17.15;8.07;;;;;;;10.16;64.62;98597.41;4861383;29;20332;-75
2022/11/26 09:29:19;;;;;;;18.55;9.10;;;;;;;10.20;64.59;98590.81;4884238;28;20772;-74
2022/11/26 09:31:46;;;;;;;18.48;8.57;;;;;;;10.06;64.59;98587.47;4880347;28;20289;-75
2022/11/26 09:34:12;;;;;;;16.83;8.57;;;;;;;10.03;64.38;98593.88;4851383;29;20359;-74
2022/11/26 09:36:37;;;;;;;17.35;7.70;;;;;;;10.18;64.58;98593.63;4833668;29;20137;-75
2022/11/26 09:39:03;;;;;;;16.30;8.55;;;;;;;10.19;64.39;98594.41;4878243;28;20172;-74
2022/11/26 09:41:50;;;;;;;16.60;8.60;;;;;;;10.29;64.49;98603.38;4882386;28;20693;-75
2022/11/26 09:44:33;;;;;;;19.73;9.27;;;;;;;10.34;64.28;98599.41;4868797;28;20283;-74
2022/11/26 09:47:15;;;;;;;16.58;7.78;;;;;;;10.46;64.10;98600.34;4883760;28;20768;-75
2022/11/26 09:50:22;;;;;;;20.20;9.13;;;;;;;10.40;64.00;98603.75;4883671;28;20323;-75
2022/11/26 09:53:01;;;;;;;16.60;8.60;;;;;;;10.35;64.17;98600.97;4846940;29;20232;-74
2022/11/26 09:55:31;;;;;;;16.83;8.68;;;;;;;10.26;65.01;98600.38;4824114;29;20293;-75
2022/11/26 09:58:02;;;;;;;13.60;7.82;;;;;;;10.21;64.86;98605.41;4840313;29;20307;-75
2022/11/26 10:00:30;;;;;;;16.67;8.93;;;;;;;10.21;64.79;98603.63;4846760;29;20671;-75
2022/11/26 10:02:57;;;;;;;16.55;8.32;;;;;;;10.33;64.14;98595.97;4846774;29;20722;-74
2022/11/26 10:05:42;;;;;;;19.30;9.63;;;;;;;10.41;64.07;98603.56;4815085;29;20277;-75
2022/11/26 10:08:25;;;;;;;15.20;8.02;;;;;;;10.54;63.51;98614.91;4815217;29;20225;-75
2022/11/26 10:10:56;;;;;;;13.60;7.47;;;;;;;10.49;63.43;98621.53;4843297;29;20221;-75
2022/11/26 10:13:44;;;;;;;12.07;6.28;;;;;;;9.96;64.47;98616.50;4812646;29;20216;-75
2022/11/26 10:16:38;;;;;;;16.10;7.68;;;;;;;10.28;63.55;98606.19;4828834;29;20201;-75
2022/11/26 10:19:12;;;;;;;10.80;6.20;;;;;;;10.35;63.97;98612.22;4839155;29;20225;-74
2022/11/26 10:21:38;;;;;;;11.13;6.78;;;;;;;10.27;63.72;98615.00;4830829;29;20372;-74
2022/11/26 10:24:08;;;;;;;9.98;6.28;;;;;;;10.37;63.82;98614.59;4844612;29;20431;-75
2022/11/26 10:26:38;;;;;;;12.85;6.68;;;;;;;10.38;63.80;98610.97;4841994;29;20278;-75
2022/11/26 10:29:22;;;;;;;12.77;7.00;;;;;;;10.53;63.37;98610.72;4858871;29;20266;-74
2022/11/26 10:31:48;;;;;;;9.98;6.68;;;;;;;10.32;63.43;98609.22;4880722;28;20186;-75
2022/11/26 10:34:24;;;;;;;14.63;6.28;;;;;;;10.42;63.18;98596.56;4866903;28;20291;-74
2022/11/26 10:36:50;;;;;;;11.82;5.53;;;;;;;10.43;62.96;98604.13;4878191;28;20286;-74
2022/11/26 10:39:17;;;;;;;13.68;6.65;;;;;;;10.33;63.65;98600.38;4876456;28;20196;-74
2022/11/26 10:41:43;;;;;;;9.68;5.75;;;;;;;10.40;63.07;98596.75;4872941;28;20643;-74
2022/11/26 10:44:41;;;;;;;12.75;5.63;;;;;;;10.47;63.56;98602.72;4873609;28;20306;-75
2022/11/26 10:47:22;;;;;;;8.95;5.55;;;;;;;10.54;63.34;98594.06;4883423;28;20207;-75
2022/11/26 10:49:48;;;;;;;11.80;6.20;;;;;;;10.33;63.37;98598.56;4882848;28;20765;-74
2022/11/26 10:52:16;;;;;;;11.52;6.40;;;;;;;10.29;64.00;98592.16;4883213;28;20204;-75
2022/11/26 10:54:43;;;;;;;9.60;5.60;;;;;;;10.29;64.19;98585.16;4865074;29;20690;-74
2022/11/26 10:57:08;;;;;;;8.82;5.32;;;;;;;10.35;64.06;98575.75;4882916;28;20168;-74
2022/11/26 10:59:44;;;;;;;11.13;5.75;;;;;;;10.40;64.00;98573.34;4884981;28;20590;-74
2022/11/26 11:02:18;;;;;;;;;;;;;;;10.66;62.77;98577.59;4871502;28;20633;-75
2022/11/26 11:04:44;;;;;;;10.70;5.40;;;;;;;10.42;63.11;98579.13;4871995;28;20153;-74
2022/11/26 11:07:29;;;;;;;11.18;5.47;;;;;;;10.62;62.53;98575.59;4887000;28;20169;-74
2022/11/26 11:10:16;;;;;;;9.13;5.30;;;;;;;10.55;62.09;98569.63;4879760;28;20291;-74
2022/11/26 11:12:46;;;;;;;9.60;4.85;;;;;;;10.39;62.61;98576.16;4884792;28;20108;-74
2022/11/26 11:15:23;;;;;;;9.90;5.32;;;;;;;10.46;62.37;98585.50;4860576;29;20204;-74
2022/11/26 11:18:11;;;;;;;8.77;5.32;;;;;;;10.48;62.30;98583.47;4886286;28;20211;-74
2022/11/26 11:20:51;;;;;;;10.18;5.95;;;;;;;10.39;62.50;98571.72;4866928;28;20345;-75
2022/11/26 11:23:28;;;;;;;7.25;4.30;;;;;;;10.37;63.13;98567.75;4886620;28;20319;-75
2022/11/26 11:26:03;;;;;;;8.80;5.00;;;;;;;10.47;62.92;98565.50;4870143;29;20646;-75
2022/11/26 11:28:30;;;;;;;9.27;5.88;;;;;;;10.40;62.83;98556.91;4882942;28;20535;-74
2022/11/26 11:31:07;;;;;;;7.80;4.40;;;;;;;10.41;63.14;98568.91;4881417;28;20227;-75
2022/11/26 11:33:33;;;;;;;8.65;4.97;;;;;;;10.25;63.32;98551.94;4886533;28;20365;-74
2022/11/26 11:36:06;;;;;;;10.43;5.32;;;;;;;10.42;63.32;98550.47;4869686;28;20240;-74
2022/11/26 11:39:08;;;;;;;7.32;4.32;;;;;;;10.54;63.37;98553.22;4876186;28;20247;-75